Time;durP1;ratioP1;P1;durP2;ratioP2;P2;SDS_P1;SDS_P2;PMS_P1;PMS_P2;Temp;Humidity;BMP_temperature;BMP_pressure;BME280_temperature;BME280_humidity;BME280_pressure;Samples;Min_cycle;Max_cycle;Signal;HPM_P1;HPM_P2
2022/03/27 00:01:42;;;;;;;10.33;5.60;;;4.40;99.90;;;;;;5060653;28;20663;-50
2022/03/27 00:04:09;;;;;;;8.57;5.07;;;5.20;99.90;;;;;;5057712;28;20216;-51
2022/03/27 00:06:37;;;;;;;10.37;4.47;;;5.10;99.90;;;;;;5055613;28;20301;-53
2022/03/27 00:09:04;;;;;;;10.03;5.43;;;5.00;99.90;;;;;;5052506;28;20204;-50
2022/03/27 00:11:33;;;;;;;8.60;5.03;;;5.00;99.90;;;;;;5062869;28;20278;-50
2022/03/27 00:14:02;;;;;;;11.77;4.83;;;4.90;99.90;;;;;;5051822;28;20213;-47
2022/03/27 00:16:29;;;;;;;10.20;4.63;;;5.00;99.90;;;;;;5062537;28;20222;-48
2022/03/27 00:18:56;;;;;;;10.80;5.30;;;4.90;99.90;;;;;;5054404;28;20205;-49
2022/03/27 00:21:23;;;;;;;13.33;4.73;;;4.90;99.90;;;;;;5063649;28;21000;-47
2022/03/27 00:23:52;;;;;;;13.73;5.93;;;4.90;99.90;;;;;;5045113;28;20886;-50
2022/03/27 00:26:20;;;;;;;12.40;5.53;;;4.90;99.90;;;;;;5054635;28;20225;-52
2022/03/27 00:28:49;;;;;;;15.47;5.57;;;4.90;99.90;;;;;;5053596;28;20568;-52
2022/03/27 00:31:17;;;;;;;14.40;5.93;;;4.80;99.90;;;;;;5057038;28;20206;-47
2022/03/27 00:33:46;;;;;;;12.87;6.10;;;4.80;99.90;;;;;;5060218;28;20715;-53
2022/03/27 00:36:15;;;;;;;16.33;6.87;;;4.80;99.90;;;;;;5056447;28;20321;-47
2022/03/27 00:38:42;;;;;;;16.53;6.23;;;4.80;99.90;;;;;;5051385;28;20225;-50
2022/03/27 00:41:10;;;;;;;16.40;6.90;;;4.70;99.90;;;;;;5059943;28;20608;-47
2022/03/27 00:43:36;;;;;;;14.37;7.00;;;4.70;99.90;;;;;;5056530;28;20202;-52
2022/03/27 00:46:06;;;;;;;15.70;7.40;;;4.60;99.90;;;;;;5054252;28;20348;-47
2022/03/27 00:48:34;;;;;;;15.43;7.50;;;4.50;99.90;;;;;;5062522;28;20198;-50
2022/03/27 00:51:01;;;;;;;13.87;6.80;;;4.50;99.90;;;;;;5055000;28;20954;-47
2022/03/27 00:53:28;;;;;;;15.47;6.20;;;4.50;99.90;;;;;;5062522;28;20722;-50
2022/03/27 00:55:55;;;;;;;17.80;6.53;;;4.50;99.90;;;;;;5051006;28;20955;-50
2022/03/27 00:58:23;;;;;;;14.73;7.30;;;4.40;99.90;;;;;;5063139;28;20256;-50
2022/03/27 01:00:55;;;;;;;13.17;6.73;;;4.40;99.90;;;;;;5053539;28;20213;-50
2022/03/27 01:03:26;;;;;;;13.47;6.13;;;4.40;99.90;;;;;;5058153;28;20205;-51
2022/03/27 01:05:54;;;;;;;12.57;6.27;;;4.40;99.90;;;;;;5052408;28;20290;-48
2022/03/27 01:11:12;;;;;;;16.80;6.20;;;4.30;99.90;;;;;;5044720;28;20513;-49
2022/03/27 01:13:43;;;;;;;14.30;6.40;;;4.30;99.90;;;;;;5058295;28;20198;-51
2022/03/27 01:16:17;;;;;;;16.67;6.07;;;4.30;99.90;;;;;;5060262;28;20316;-46
2022/03/27 01:18:46;;;;;;;18.90;6.87;;;4.30;99.90;;;;;;5055169;28;20582;-51
2022/03/27 01:21:15;;;;;;;12.53;6.07;;;4.30;99.90;;;;;;5056265;28;20656;-49
2022/03/27 01:23:42;;;;;;;14.20;6.77;;;4.30;99.90;;;;;;5059523;28;20217;-49
2022/03/27 01:26:08;;;;;;;13.17;6.03;;;4.30;99.90;;;;;;5047652;28;21912;-50
2022/03/27 01:28:36;;;;;;;18.20;6.57;;;4.30;99.90;;;;;;5061311;28;20191;-50
2022/03/27 01:31:07;;;;;;;10.40;5.80;;;4.30;99.90;;;;;;5054917;28;20197;-47
2022/03/27 01:33:34;;;;;;;12.03;6.50;;;4.30;99.90;;;;;;5056679;28;20554;-49
2022/03/27 01:36:01;;;;;;;15.73;6.43;;;4.20;99.90;;;;;;5059456;28;20342;-48
2022/03/27 01:38:30;;;;;;;10.27;6.20;;;4.20;99.90;;;;;;5054376;28;20635;-47
2022/03/27 01:40:57;;;;;;;14.00;6.30;;;4.20;99.90;;;;;;5044803;28;21601;-47
2022/03/27 01:43:24;;;;;;;12.53;6.70;;;4.20;99.90;;;;;;5060142;28;20198;-47
2022/03/27 01:45:51;;;;;;;18.50;7.57;;;4.30;99.90;;;;;;5052650;28;20210;-46
2022/03/27 01:48:18;;;;;;;11.00;6.20;;;4.30;99.90;;;;;;5062451;28;20203;-51
2022/03/27 01:50:57;;;;;;;13.73;6.57;;;4.20;99.90;;;;;;5054444;28;20206;-51
2022/03/27 01:53:24;;;;;;;21.33;7.47;;;4.20;99.90;;;;;;5056297;28;20238;-47
2022/03/27 01:55:52;;;;;;;25.83;6.20;;;4.20;99.90;;;;;;5045379;28;20237;-46
2022/03/27 01:58:19;;;;;;;20.30;6.03;;;4.20;99.90;;;;;;5061959;28;20211;-49
2022/03/27 02:00:46;;;;;;;54.27;6.63;;;4.20;99.90;;;;;;5053955;28;20213;-49
2022/03/27 02:03:14;;;;;;;14.27;5.83;;;4.20;99.90;;;;;;5062298;28;20686;-50
2022/03/27 02:05:41;;;;;;;42.83;5.47;;;4.30;99.90;;;;;;5054847;28;20325;-52
2022/03/27 02:08:09;;;;;;;39.63;6.40;;;4.30;99.90;;;;;;5054672;28;20328;-50
2022/03/27 02:10:36;;;;;;;8.10;5.03;;;4.20;99.90;;;;;;5055135;28;20199;-51
2022/03/27 02:13:04;;;;;;;13.53;5.17;;;4.20;99.90;;;;;;5053223;28;20202;-50
2022/03/27 02:15:31;;;;;;;11.37;6.00;;;4.30;99.90;;;;;;5061757;28;20225;-51
2022/03/27 02:18:01;;;;;;;25.10;5.70;;;4.30;99.90;;;;;;5053868;28;20218;-47
2022/03/27 02:20:28;;;;;;;26.20;6.30;;;4.30;99.90;;;;;;5057330;28;20214;-46
2022/03/27 02:22:55;;;;;;;22.73;5.77;;;4.20;99.90;;;;;;5058803;28;20195;-47
2022/03/27 02:25:22;;;;;;;13.60;5.27;;;4.10;99.90;;;;;;5055517;28;20230;-47
2022/03/27 02:27:50;;;;;;;12.53;5.43;;;4.10;99.90;;;;;;5043986;28;20202;-46
2022/03/27 02:30:19;;;;;;;8.23;5.50;;;4.10;99.90;;;;;;5062049;28;20198;-50
2022/03/27 02:32:48;;;;;;;7.30;4.90;;;4.10;99.90;;;;;;5053075;28;20611;-50
2022/03/27 02:35:15;;;;;;;10.97;5.20;;;4.10;99.90;;;;;;5060573;28;20222;-46
2022/03/27 02:37:41;;;;;;;9.63;5.40;;;4.00;99.90;;;;;;5062533;28;20698;-49
2022/03/27 02:40:10;;;;;;;11.77;5.70;;;4.10;99.90;;;;;;5058596;28;20900;-50
2022/03/27 02:42:36;;;;;;;8.70;5.50;;;4.10;99.90;;;;;;5050276;28;20203;-52
2022/03/27 02:45:05;;;;;;;11.47;5.60;;;4.00;99.90;;;;;;5063406;28;20525;-48
2022/03/27 02:47:33;;;;;;;14.70;5.80;;;4.00;99.90;;;;;;5058688;28;20214;-54
2022/03/27 02:50:00;;;;;;;7.33;5.33;;;3.90;99.90;;;;;;5062784;28;20206;-48
2022/03/27 02:52:27;;;;;;;9.13;6.37;;;4.00;99.90;;;;;;5060467;28;20760;-46
2022/03/27 02:54:53;;;;;;;19.13;4.93;;;4.00;99.90;;;;;;5054319;28;20222;-49
2022/03/27 02:57:20;;;;;;;10.23;5.03;;;3.90;99.90;;;;;;5064561;28;20214;-47
2022/03/27 02:59:47;;;;;;;8.90;4.63;;;3.90;99.90;;;;;;5044808;28;20293;-49
2022/03/27 03:02:15;;;;;;;9.10;4.83;;;3.90;99.90;;;;;;5064952;28;20202;-48
2022/03/27 03:04:43;;;;;;;13.93;5.33;;;3.90;99.90;;;;;;5057635;28;20589;-52
2022/03/27 03:07:10;;;;;;;18.43;4.57;;;3.90;99.90;;;;;;5059065;28;20207;-46
2022/03/27 03:09:40;;;;;;;7.10;4.77;;;3.90;99.90;;;;;;5059246;28;20229;-53
2022/03/27 03:12:08;;;;;;;5.33;4.83;;;3.90;99.90;;;;;;5061794;28;20277;-47
2022/03/27 03:14:35;;;;;;;9.03;4.53;;;3.90;99.90;;;;;;5048456;28;20606;-53
2022/03/27 03:17:04;;;;;;;12.30;5.07;;;3.90;99.90;;;;;;5061975;28;20381;-47
2022/03/27 03:19:30;;;;;;;26.27;5.20;;;3.90;99.90;;;;;;5059273;28;20215;-51
2022/03/27 03:21:59;;;;;;;15.67;4.57;;;3.90;99.90;;;;;;5056297;28;20202;-47
2022/03/27 03:24:27;;;;;;;11.23;4.70;;;3.80;99.90;;;;;;5059181;28;20214;-45
2022/03/27 03:26:54;;;;;;;10.33;4.83;;;3.70;99.90;;;;;;5053977;28;20197;-48
2022/03/27 03:29:22;;;;;;;6.13;4.90;;;3.70;99.90;;;;;;5048976;28;20282;-48
2022/03/27 03:31:49;;;;;;;4.70;4.30;;;3.70;99.90;;;;;;5059615;28;20203;-46
2022/03/27 03:34:16;;;;;;;3.93;3.60;;;3.70;99.90;;;;;;5058422;28;20203;-46
2022/03/27 03:36:43;;;;;;;6.40;4.20;;;3.70;99.90;;;;;;5050594;28;20209;-49
2022/03/27 03:39:12;;;;;;;13.17;4.73;;;3.60;99.90;;;;;;5062437;28;20734;-47
2022/03/27 03:41:38;;;;;;;11.03;5.30;;;3.60;99.90;;;;;;5050360;28;20722;-49
2022/03/27 03:44:06;;;;;;;6.10;4.53;;;3.60;99.90;;;;;;5042576;28;21139;-45
2022/03/27 03:46:33;;;;;;;8.07;5.37;;;3.60;99.90;;;;;;5059967;28;20222;-49
2022/03/27 03:49:00;;;;;;;23.03;5.47;;;3.60;99.90;;;;;;5061116;28;20182;-47
2022/03/27 03:51:27;;;;;;;52.23;7.60;;;3.60;99.90;;;;;;5059415;28;20232;-47
2022/03/27 03:53:54;;;;;;;15.67;5.37;;;3.60;99.90;;;;;;5053878;28;20202;-48
2022/03/27 03:56:22;;;;;;;7.20;4.60;;;3.50;99.90;;;;;;5063752;28;20222;-50
2022/03/27 03:58:49;;;;;;;15.43;5.40;;;3.60;99.90;;;;;;5040185;28;20219;-46
2022/03/27 04:01:16;;;;;;;20.87;5.30;;;3.70;99.90;;;;;;5058610;28;20670;-49
2022/03/27 04:03:43;;;;;;;8.57;4.63;;;3.70;99.90;;;;;;5061192;28;20211;-51
2022/03/27 04:06:10;;;;;;;7.43;5.80;;;3.70;99.90;;;;;;5057054;28;20350;-46
2022/03/27 04:08:36;;;;;;;5.80;4.97;;;3.60;99.90;;;;;;5056856;28;20198;-51
2022/03/27 04:11:04;;;;;;;15.27;4.83;;;3.60;99.90;;;;;;5061999;28;20186;-49
2022/03/27 04:13:32;;;;;;;20.03;7.10;;;3.60;99.90;;;;;;5057329;28;20233;-50
2022/03/27 04:15:59;;;;;;;10.27;5.30;;;3.50;99.90;;;;;;5046718;28;20215;-47
2022/03/27 04:18:26;;;;;;;10.47;5.53;;;3.50;99.90;;;;;;5063326;28;20681;-50
2022/03/27 04:20:53;;;;;;;7.33;4.93;;;3.50;99.90;;;;;;5054172;28;20203;-47
2022/03/27 04:23:20;;;;;;;25.57;6.10;;;3.60;99.90;;;;;;5058615;28;20690;-48
2022/03/27 04:25:47;;;;;;;14.13;4.90;;;3.60;99.90;;;;;;5058597;28;20245;-53
2022/03/27 04:28:14;;;;;;;16.03;5.63;;;3.50;99.90;;;;;;5057444;28;20207;-49
2022/03/27 04:30:42;;;;;;;8.67;5.27;;;3.40;99.90;;;;;;5047788;28;20576;-50
2022/03/27 04:33:10;;;;;;;9.07;4.77;;;3.40;99.90;;;;;;5062543;28;20199;-49
2022/03/27 04:35:38;;;;;;;10.03;4.83;;;3.40;99.90;;;;;;5059833;28;20222;-53
2022/03/27 04:38:05;;;;;;;5.27;4.77;;;3.50;99.90;;;;;;5058137;28;20201;-49
2022/03/27 04:40:32;;;;;;;22.73;5.53;;;3.50;99.90;;;;;;5057523;28;20205;-50
2022/03/27 04:42:59;;;;;;;37.70;5.90;;;3.50;99.90;;;;;;5054218;28;20309;-49
2022/03/27 04:45:26;;;;;;;15.33;5.00;;;3.50;99.90;;;;;;5063108;28;20286;-49
2022/03/27 04:47:54;;;;;;;7.93;5.23;;;3.50;99.90;;;;;;5040407;28;20194;-48
2022/03/27 04:50:21;;;;;;;5.97;5.00;;;3.50;99.90;;;;;;5062839;28;20206;-48
2022/03/27 04:52:47;;;;;;;13.83;5.23;;;3.40;99.90;;;;;;5054467;28;20210;-49
2022/03/27 04:55:14;;;;;;;33.43;5.80;;;3.40;99.90;;;;;;5057527;28;20864;-51
2022/03/27 04:57:42;;;;;;;27.17;5.23;;;3.40;99.90;;;;;;5059656;28;20202;-53
2022/03/27 05:00:14;;;;;;;15.10;4.50;;;3.40;99.90;;;;;;5055554;28;20339;-48
2022/03/27 05:02:42;;;;;;;7.57;5.07;;;3.40;99.90;;;;;;5047177;28;20206;-50
2022/03/27 05:05:11;;;;;;;19.90;5.63;;;3.40;99.90;;;;;;5060265;28;20242;-48
2022/03/27 05:07:39;;;;;;;11.03;4.87;;;3.40;99.90;;;;;;5055236;28;20202;-54
2022/03/27 05:10:07;;;;;;;15.47;5.53;;;3.40;99.90;;;;;;5055881;28;20204;-47
2022/03/27 05:12:34;;;;;;;13.83;4.97;;;3.30;99.90;;;;;;5062245;28;20195;-52
2022/03/27 05:15:01;;;;;;;9.70;4.70;;;3.20;99.90;;;;;;5053900;28;20219;-48
2022/03/27 05:17:28;;;;;;;31.30;6.30;;;3.10;99.90;;;;;;5062245;28;20198;-52
2022/03/27 05:19:55;;;;;;;96.60;8.23;;;3.10;99.90;;;;;;5043239;28;20217;-49
2022/03/27 05:22:23;;;;;;;71.47;7.03;;;3.00;99.90;;;;;;5062736;28;20208;-52
2022/03/27 05:24:52;;;;;;;44.13;6.17;;;3.00;99.90;;;;;;5052712;28;20810;-48
2022/03/27 05:27:19;;;;;;;30.80;6.03;;;3.00;99.90;;;;;;5057437;28;20203;-48
2022/03/27 05:29:46;;;;;;;64.73;7.63;;;3.00;99.90;;;;;;5053619;28;20526;-54
2022/03/27 05:32:13;;;;;;;40.13;7.73;;;3.00;99.90;;;;;;5062654;28;20195;-47
2022/03/27 05:34:40;;;;;;;31.17;5.97;;;3.00;99.90;;;;;;5047653;28;20323;-52
2022/03/27 05:37:07;;;;;;;39.73;6.30;;;3.00;99.90;;;;;;5061048;28;20849;-48
2022/03/27 05:39:35;;;;;;;24.27;5.27;;;2.90;99.90;;;;;;5055273;28;20583;-52
2022/03/27 05:42:02;;;;;;;19.23;5.23;;;3.00;99.90;;;;;;5055285;28;20209;-47
2022/03/27 05:44:29;;;;;;;20.13;5.80;;;2.90;99.90;;;;;;5062734;28;20207;-51
2022/03/27 05:46:56;;;;;;;29.93;5.50;;;2.90;99.90;;;;;;5053014;28;20286;-50
2022/03/27 05:49:23;;;;;;;19.73;7.13;;;2.90;99.90;;;;;;5043449;28;20245;-48
2022/03/27 05:51:50;;;;;;;7.50;5.33;;;2.90;99.90;;;;;;5050722;28;20721;-48
2022/03/27 05:54:17;;;;;;;40.20;6.40;;;2.90;99.90;;;;;;5054324;28;20206;-52
2022/03/27 05:56:45;;;;;;;14.67;6.27;;;2.90;99.90;;;;;;5044920;28;20226;-50
2022/03/27 05:59:11;;;;;;;26.07;6.43;;;3.00;99.90;;;;;;5059585;28;20230;-50
2022/03/27 06:01:38;;;;;;;15.83;5.80;;;3.00;99.90;;;;;;5043813;28;20246;-51
2022/03/27 06:04:05;;;;;;;22.50;5.50;;;3.00;99.90;;;;;;5038366;28;20206;-47
2022/03/27 06:06:32;;;;;;;27.20;6.73;;;3.00;99.90;;;;;;5055343;28;20668;-52
2022/03/27 06:08:59;;;;;;;30.97;6.60;;;3.00;99.90;;;;;;5055555;28;20784;-50
2022/03/27 06:11:26;;;;;;;25.57;6.13;;;3.00;99.90;;;;;;5056280;28;20650;-47
2022/03/27 06:13:54;;;;;;;25.20;5.93;;;3.00;99.90;;;;;;5054641;28;20202;-47
2022/03/27 06:16:20;;;;;;;14.33;5.87;;;2.90;99.90;;;;;;5056425;28;20599;-47
2022/03/27 06:18:47;;;;;;;33.77;6.87;;;2.90;99.90;;;;;;5059969;28;20240;-52
2022/03/27 06:21:14;;;;;;;26.43;6.97;;;3.00;99.90;;;;;;5050135;28;20241;-47
2022/03/27 06:23:41;;;;;;;32.07;6.13;;;2.90;99.90;;;;;;5060776;28;20195;-54
2022/03/27 06:26:08;;;;;;;41.53;7.23;;;3.00;99.90;;;;;;5056569;28;20233;-49
2022/03/27 06:28:35;;;;;;;81.77;10.80;;;3.00;99.90;;;;;;5057206;28;20216;-49
2022/03/27 06:31:04;;;;;;;32.30;6.33;;;3.10;99.90;;;;;;5059420;28;20206;-49
2022/03/27 06:33:30;;;;;;;20.07;6.67;;;3.20;99.90;;;;;;5056386;28;20231;-52
2022/03/27 06:35:58;;;;;;;14.37;6.47;;;3.20;99.90;;;;;;5044960;28;20222;-48
2022/03/27 06:38:25;;;;;;;24.53;6.93;;;3.30;99.90;;;;;;5064805;28;20206;-52
2022/03/27 06:40:52;;;;;;;33.87;6.23;;;3.30;99.90;;;;;;5056203;28;20213;-52
2022/03/27 06:43:19;;;;;;;37.40;5.70;;;3.30;99.90;;;;;;5060400;28;20194;-49
2022/03/27 06:45:46;;;;;;;54.33;8.43;;;3.40;99.90;;;;;;5057193;28;20225;-54
2022/03/27 06:48:14;;;;;;;33.80;6.90;;;3.30;99.90;;;;;;5051463;28;20206;-52
2022/03/27 06:50:44;;;;;;;38.03;7.50;;;3.30;99.90;;;;;;5050648;28;20220;-51
2022/03/27 06:53:11;;;;;;;18.77;6.67;;;3.40;99.90;;;;;;5062114;28;20198;-48
2022/03/27 06:55:37;;;;;;;66.00;7.93;;;3.40;99.90;;;;;;5062370;28;20241;-52
2022/03/27 06:58:04;;;;;;;42.47;7.43;;;3.50;99.90;;;;;;5057745;28;20205;-50
2022/03/27 07:03:17;;;;;;;14.50;7.23;;;3.60;99.90;;;;;;5060118;28;20198;-49
2022/03/27 07:05:45;;;;;;;38.13;8.60;;;3.70;99.90;;;;;;5055904;28;20238;-53
2022/03/27 07:08:13;;;;;;;58.87;11.67;;;3.70;99.90;;;;;;5050444;28;20207;-47
2022/03/27 07:10:41;;;;;;;21.10;7.33;;;3.80;99.90;;;;;;5062351;28;20199;-51
2022/03/27 07:13:10;;;;;;;12.43;7.90;;;3.80;99.90;;;;;;5058767;28;20202;-47
2022/03/27 07:15:38;;;;;;;33.70;9.03;;;3.90;99.90;;;;;;5058367;28;20313;-52
2022/03/27 07:18:06;;;;;;;27.67;8.00;;;4.00;99.90;;;;;;5061776;28;20289;-49
2022/03/27 07:20:36;;;;;;;19.73;7.83;;;4.00;99.90;;;;;;5052893;28;20225;-49
2022/03/27 07:23:06;;;;;;;33.00;8.13;;;4.10;99.90;;;;;;5042759;28;20334;-47
2022/03/27 07:25:35;;;;;;;43.07;9.87;;;4.20;99.90;;;;;;5063157;28;20316;-52
2022/03/27 07:28:03;;;;;;;36.47;9.23;;;4.30;99.90;;;;;;5052597;28;20313;-51
2022/03/27 07:30:30;;;;;;;37.70;9.30;;;4.30;99.90;;;;;;5064512;28;20191;-54
2022/03/27 07:32:57;;;;;;;33.83;8.77;;;4.30;99.90;;;;;;5056397;28;20926;-50
2022/03/27 07:35:25;;;;;;;22.70;9.47;;;4.40;99.90;;;;;;5058543;28;20230;-50
2022/03/27 07:37:54;;;;;;;37.93;9.50;;;4.30;99.90;;;;;;5046162;28;22302;-50
2022/03/27 07:40:22;;;;;;;46.30;11.03;;;4.40;99.90;;;;;;5065431;28;20567;-52
2022/03/27 07:42:51;;;;;;;46.40;11.10;;;4.40;99.90;;;;;;5059530;28;20190;-46
2022/03/27 07:45:19;;;;;;;31.83;11.17;;;4.50;99.90;;;;;;5060318;28;20705;-49
2022/03/27 07:47:47;;;;;;;26.13;9.83;;;4.60;99.90;;;;;;5055395;28;20202;-55
2022/03/27 07:50:15;;;;;;;28.50;10.93;;;4.60;99.90;;;;;;5056785;28;20678;-50
2022/03/27 07:52:43;;;;;;;26.73;10.43;;;4.60;99.90;;;;;;5052037;28;20198;-51
2022/03/27 07:55:14;;;;;;;22.70;11.83;;;4.80;99.90;;;;;;5060404;28;20309;-52
2022/03/27 07:57:42;;;;;;;31.60;12.27;;;4.80;99.90;;;;;;5061063;28;20214;-54
2022/03/27 08:00:11;;;;;;;32.07;12.30;;;4.90;99.90;;;;;;5057933;28;20257;-47
2022/03/27 08:02:41;;;;;;;28.10;12.07;;;5.00;99.90;;;;;;5057007;28;20199;-50
2022/03/27 08:05:09;;;;;;;35.23;12.67;;;5.00;99.90;;;;;;5055959;28;20230;-46
2022/03/27 08:07:37;;;;;;;24.80;12.53;;;5.00;99.90;;;;;;5060568;28;20201;-51
2022/03/27 08:10:05;;;;;;;54.47;15.57;;;5.10;99.90;;;;;;5046169;28;20209;-48
2022/03/27 08:12:34;;;;;;;27.40;14.87;;;5.10;99.90;;;;;;5054912;28;20679;-48
2022/03/27 08:15:01;;;;;;;41.17;14.53;;;5.20;99.90;;;;;;5061668;28;20284;-49
2022/03/27 08:17:29;;;;;;;28.17;16.47;;;5.30;99.90;;;;;;5060549;28;20210;-53
2022/03/27 08:19:56;;;;;;;33.00;15.77;;;5.40;99.90;;;;;;5061503;28;20203;-52
2022/03/27 08:22:24;;;;;;;28.77;15.80;;;5.50;99.90;;;;;;5057173;28;20650;-52
2022/03/27 08:24:51;;;;;;;37.27;16.13;;;5.50;99.90;;;;;;5048255;28;20373;-47
2022/03/27 08:27:18;;;;;;;31.53;16.13;;;5.60;99.90;;;;;;5063460;28;20216;-49
2022/03/27 08:29:46;;;;;;;34.20;18.13;;;5.70;99.90;;;;;;5059707;28;20194;-47
2022/03/27 08:32:16;;;;;;;34.27;18.33;;;5.80;99.90;;;;;;5051565;28;20202;-51
2022/03/27 08:34:44;;;;;;;41.03;17.93;;;5.90;99.90;;;;;;5052304;28;20221;-49
2022/03/27 08:37:13;;;;;;;47.20;19.80;;;5.90;99.90;;;;;;5056550;28;20224;-48
2022/03/27 08:39:41;;;;;;;34.80;17.57;;;6.00;99.90;;;;;;5043166;28;22853;-48
2022/03/27 08:42:08;;;;;;;39.33;19.23;;;6.10;99.90;;;;;;5056893;28;20256;-47
2022/03/27 08:44:37;;;;;;;48.20;19.57;;;6.10;99.90;;;;;;5055830;28;20264;-48
2022/03/27 08:47:14;;;;;;;42.63;19.93;;;6.20;99.90;;;;;;5051213;28;20213;-46
2022/03/27 08:49:43;;;;;;;44.60;21.97;;;6.30;99.90;;;;;;5059271;28;20195;-46
2022/03/27 08:52:24;;;;;;;42.07;20.67;;;6.50;99.90;;;;;;5057687;28;20209;-46
2022/03/27 08:54:58;;;;;;;47.73;20.27;;;6.60;99.90;;;;;;5059709;28;20279;-51
2022/03/27 08:57:41;;;;;;;45.90;18.63;;;;;;;;;;5048790;28;20873;-48
2022/03/27 09:00:08;;;;;;;36.37;19.33;;;6.80;99.90;;;;;;5056514;28;20584;-47
2022/03/27 09:02:37;;;;;;;41.40;18.33;;;7.00;99.90;;;;;;5049244;28;20210;-53
2022/03/27 09:05:04;;;;;;;38.23;18.00;;;7.10;99.90;;;;;;5056261;28;20227;-48
2022/03/27 09:07:32;;;;;;;43.20;17.87;;;7.20;99.90;;;;;;5048373;28;20551;-49
2022/03/27 09:09:59;;;;;;;33.40;15.77;;;7.20;99.90;;;;;;5055464;28;20447;-46
2022/03/27 09:12:26;;;;;;;41.33;15.63;;;7.30;99.90;;;;;;5047920;28;20213;-49
2022/03/27 09:14:56;;;;;;;34.07;15.33;;;7.30;99.90;;;;;;5059988;28;20305;-45
2022/03/27 09:17:23;;;;;;;32.37;16.43;;;7.30;99.90;;;;;;5056959;28;20198;-49
2022/03/27 09:19:52;;;;;;;34.00;14.53;;;7.40;99.90;;;;;;5059686;28;20237;-47
2022/03/27 09:22:21;;;;;;;42.47;15.20;;;7.50;99.90;;;;;;5063088;28;20252;-46
2022/03/27 09:24:56;;;;;;;34.43;14.90;;;7.70;99.90;;;;;;5051757;28;20222;-47
2022/03/27 09:27:30;;;;;;;32.87;13.67;;;7.80;99.90;;;;;;5043912;28;23857;-49
2022/03/27 09:29:59;;;;;;;34.77;13.23;;;7.90;99.90;;;;;;5060936;28;20203;-49
2022/03/27 09:32:27;;;;;;;26.40;12.57;;;8.00;99.90;;;;;;5051998;28;20207;-48
2022/03/27 09:35:01;;;;;;;30.73;11.63;;;8.10;99.90;;;;;;5061411;28;20586;-50
2022/03/27 09:37:30;;;;;;;27.73;13.53;;;8.20;99.90;;;;;;5061565;28;20202;-45
2022/03/27 09:39:57;;;;;;;30.33;12.97;;;8.30;99.90;;;;;;5054705;28;20300;-49
2022/03/27 09:42:24;;;;;;;28.33;11.33;;;8.40;99.90;;;;;;5062791;28;20194;-47
2022/03/27 09:45:13;;;;;;;28.50;11.30;;;8.40;99.90;;;;;;5046596;28;20222;-47
2022/03/27 09:47:41;;;;;;;34.53;11.77;;;8.50;99.90;;;;;;5053007;28;20207;-47
2022/03/27 09:50:29;;;;;;;26.47;11.40;;;8.60;99.90;;;;;;5059144;28;20225;-49
2022/03/27 09:53:24;;;;;;;23.30;10.27;;;8.70;99.90;;;;;;5056993;28;20194;-50
2022/03/27 09:56:12;;;;;;;29.27;9.87;;;8.90;99.90;;;;;;5058852;28;20223;-48
2022/03/27 09:58:40;;;;;;;22.43;8.07;;;8.90;99.90;;;;;;5052599;28;20206;-47
2022/03/27 10:01:15;;;;;;;21.43;8.90;;;9.00;99.90;;;;;;5061514;28;20217;-47
2022/03/27 10:03:59;;;;;;;23.70;9.30;;;9.00;99.90;;;;;;5061573;28;20701;-48
2022/03/27 10:06:30;;;;;;;18.13;8.23;;;9.10;99.90;;;;;;5064893;28;20230;-51
2022/03/27 10:08:57;;;;;;;24.63;8.67;;;9.20;99.90;;;;;;5058119;28;20203;-49
2022/03/27 10:11:25;;;;;;;21.70;8.20;;;9.30;99.90;;;;;;5059080;28;20303;-47
2022/03/27 10:13:53;;;;;;;20.93;7.43;;;9.30;99.90;;;;;;5060744;28;20207;-48
2022/03/27 10:16:28;;;;;;;21.67;7.87;;;9.40;99.90;;;;;;5060402;28;20226;-46
2022/03/27 10:18:59;;;;;;;22.33;8.60;;;9.40;99.90;;;;;;5059356;28;20202;-52
2022/03/27 10:21:30;;;;;;;16.50;6.90;;;9.30;99.90;;;;;;5060333;28;20961;-46
2022/03/27 10:24:07;;;;;;;19.93;7.20;;;9.60;99.90;;;;;;5056795;28;20203;-49
2022/03/27 10:26:35;;;;;;;23.97;7.60;;;9.80;99.90;;;;;;5059344;28;20222;-49
2022/03/27 10:29:03;;;;;;;15.20;6.60;;;9.80;99.90;;;;;;5062832;28;20198;-49
2022/03/27 10:31:31;;;;;;;18.93;6.67;;;9.90;99.90;;;;;;5051662;28;20348;-49
2022/03/27 10:34:00;;;;;;;16.47;7.17;;;10.00;99.90;;;;;;5056178;28;20563;-53
2022/03/27 10:36:40;;;;;;;19.07;7.00;;;10.00;99.90;;;;;;5063134;28;20697;-46
2022/03/27 10:39:13;;;;;;;17.30;7.33;;;10.00;99.90;;;;;;5061998;28;20929;-49
2022/03/27 10:41:50;;;;;;;12.87;6.47;;;10.10;99.90;;;;;;5053225;28;20237;-47
2022/03/27 10:44:26;;;;;;;14.07;6.77;;;10.20;99.90;;;;;;5057541;28;20725;-47
2022/03/27 10:47:16;;;;;;;15.53;6.47;;;10.30;99.90;;;;;;5045424;28;20207;-49
2022/03/27 10:50:14;;;;;;;17.07;7.30;;;10.30;99.90;;;;;;5058743;28;20238;-47
2022/03/27 10:53:08;;;;;;;13.80;6.27;;;10.40;99.90;;;;;;5062366;28;20277;-48
2022/03/27 10:55:43;;;;;;;15.73;7.50;;;10.50;99.90;;;;;;5061371;28;20222;-48
2022/03/27 10:58:30;;;;;;;8.43;5.17;;;10.50;99.90;;;;;;5055232;28;20256;-45
2022/03/27 11:00:58;;;;;;;13.93;6.43;;;10.50;99.90;;;;;;5049753;28;20214;-50
2022/03/27 11:03:45;;;;;;;14.60;6.90;;;10.60;99.90;;;;;;5063800;28;20221;-46
2022/03/27 11:06:23;;;;;;;13.77;6.90;;;10.70;99.90;;;;;;5055944;28;20955;-46
2022/03/27 11:08:53;;;;;;;11.77;6.37;;;10.90;99.90;;;;;;5064647;28;20264;-52
2022/03/27 11:12:02;;;;;;;11.50;6.70;;;10.80;99.90;;;;;;5062277;28;20195;-44
2022/03/27 11:14:59;;;;;;;13.10;6.33;;;10.80;99.90;;;;;;5053905;28;20222;-49
2022/03/27 11:17:37;;;;;;;14.17;6.47;;;10.90;99.90;;;;;;5058315;28;20209;-46
2022/03/27 11:20:06;;;;;;;13.60;6.40;;;;;;;;;;5061700;28;20277;-48
2022/03/27 11:22:51;;;;;;;11.53;5.87;;;10.90;99.90;;;;;;5060192;28;20202;-47
2022/03/27 11:25:45;;;;;;;11.03;5.67;;;11.10;99.90;;;;;;5061594;28;20248;-47
2022/03/27 11:28:14;;;;;;;16.87;6.73;;;11.10;99.90;;;;;;5055017;28;21335;-45
2022/03/27 11:31:17;;;;;;;10.80;6.80;;;11.20;99.90;;;;;;5061450;28;20191;-51
2022/03/27 11:33:45;;;;;;;11.50;7.57;;;11.10;99.90;;;;;;5062110;28;20277;-45
2022/03/27 11:36:23;;;;;;;13.37;6.70;;;11.10;99.90;;;;;;5051212;28;20337;-47
2022/03/27 11:39:04;;;;;;;14.23;7.10;;;11.10;99.90;;;;;;5057644;28;20666;-49
2022/03/27 11:41:38;;;;;;;14.57;7.07;;;11.20;99.90;;;;;;5052978;28;20305;-42
2022/03/27 11:45:06;;;;;;;15.73;7.17;;;11.30;99.90;;;;;;5055194;28;20553;-46
2022/03/27 11:47:19;;;;;;;16.40;7.57;;;11.10;99.90;;;;;;5047149;28;20247;-47
2022/03/27 11:49:47;;;;;;;11.60;7.27;;;11.00;99.90;;;;;;5060751;28;20198;-49
2022/03/27 11:52:16;;;;;;;14.17;8.23;;;11.10;99.90;;;;;;5051845;28;20203;-45
2022/03/27 11:54:43;;;;;;;12.67;7.70;;;11.20;99.90;;;;;;5058234;28;20223;-45
2022/03/27 11:57:12;;;;;;;15.83;7.87;;;11.10;99.90;;;;;;5055366;28;20198;-48
2022/03/27 11:59:48;;;;;;;13.13;7.17;;;11.10;99.90;;;;;;5065264;28;20421;-50
2022/03/27 12:02:16;;;;;;;15.07;7.33;;;11.20;99.90;;;;;;5043908;28;20232;-47
2022/03/27 12:04:53;;;;;;;9.73;6.83;;;11.30;99.90;;;;;;5057748;28;21172;-48
2022/03/27 12:07:22;;;;;;;14.20;7.27;;;11.20;99.90;;;;;;5057187;28;20205;-43
2022/03/27 12:09:57;;;;;;;10.57;6.70;;;11.20;99.90;;;;;;5057411;28;20626;-43
2022/03/27 12:12:27;;;;;;;15.37;6.83;;;11.30;99.90;;;;;;5055914;28;20813;-44
2022/03/27 12:15:17;;;;;;;12.47;6.90;;;11.40;99.90;;;;;;5053546;28;20245;-45
2022/03/27 12:17:46;;;;;;;11.53;6.90;;;11.50;99.90;;;;;;5058629;28;20259;-46
2022/03/27 12:20:15;;;;;;;13.00;8.30;;;11.70;99.90;;;;;;5058032;28;20199;-46
2022/03/27 12:22:44;;;;;;;14.90;7.87;;;11.90;99.90;;;;;;5061051;28;20253;-43
2022/03/27 12:25:25;;;;;;;10.33;7.07;;;11.90;99.90;;;;;;5056466;28;20272;-42
2022/03/27 12:30:46;;;;;;;11.57;6.97;;;11.70;99.90;;;;;;5062013;28;20252;-43
2022/03/27 12:33:14;;;;;;;10.27;6.67;;;11.80;99.90;;;;;;5053074;28;20212;-45
2022/03/27 12:35:41;;;;;;;9.73;7.00;;;11.90;99.90;;;;;;5063233;28;20305;-43
2022/03/27 12:38:08;;;;;;;11.20;7.40;;;12.00;99.90;;;;;;5051102;28;20218;-48
2022/03/27 12:40:43;;;;;;;10.33;6.70;;;12.20;99.90;;;;;;5050194;28;20195;-47
2022/03/27 12:43:16;;;;;;;12.87;7.10;;;12.30;99.90;;;;;;5057115;28;20198;-42
2022/03/27 12:45:44;;;;;;;14.70;6.27;;;12.30;99.90;;;;;;5063456;28;20218;-42
2022/03/27 12:48:17;;;;;;;14.60;6.83;;;12.30;99.90;;;;;;5049984;28;20218;-42
2022/03/27 12:50:46;;;;;;;13.97;6.57;;;12.40;99.90;;;;;;5066370;28;20190;-45
2022/03/27 12:53:14;;;;;;;10.97;6.20;;;12.40;99.90;;;;;;5059224;28;20191;-45
2022/03/27 12:55:43;;;;;;;10.73;6.10;;;12.50;99.90;;;;;;5061017;28;20265;-42
2022/03/27 12:58:11;;;;;;;8.20;5.93;;;12.50;99.90;;;;;;5048659;28;20194;-44
2022/03/27 13:00:41;;;;;;;11.27;6.30;;;12.50;99.90;;;;;;5062509;28;20206;-43
2022/03/27 13:03:13;;;;;;;9.73;5.73;;;12.50;99.90;;;;;;5043668;28;20252;-43
2022/03/27 13:05:41;;;;;;;12.73;5.90;;;12.50;99.90;;;;;;5060687;28;20222;-44
2022/03/27 13:08:08;;;;;;;8.43;5.40;;;12.60;99.90;;;;;;5049527;28;20206;-45